sensor_id;sensor_type;location;lat;lon;timestamp;pressure;altitude;pressure_sealevel;temperature;humidity
43683;BME280;29285;52.128;21.060;2023-04-29T00:01:19;100372.45;;;8.89;59.56
43683;BME280;29285;52.128;21.060;2023-04-29T00:06:21;100369.08;;;8.80;59.70
43683;BME280;29285;52.128;21.060;2023-04-29T00:11:23;100367.88;;;8.76;60.00
43683;BME280;29285;52.128;21.060;2023-04-29T00:16:24;100364.80;;;8.73;60.36
43683;BME280;29285;52.128;21.060;2023-04-29T00:21:25;100365.86;;;8.70;60.69
43683;BME280;29285;52.128;21.060;2023-04-29T00:26:30;100365.69;;;8.71;61.08
43683;BME280;29285;52.128;21.060;2023-04-29T00:31:31;100362.06;;;8.70;61.57
43683;BME280;29285;52.128;21.060;2023-04-29T00:36:32;100358.44;;;8.68;61.81
43683;BME280;29285;52.128;21.060;2023-04-29T00:41:33;100356.04;;;8.65;62.09
43683;BME280;29285;52.128;21.060;2023-04-29T00:46:35;100349.50;;;8.62;62.36
43683;BME280;29285;52.128;21.060;2023-04-29T00:51:36;100345.70;;;8.59;62.71
43683;BME280;29285;52.128;21.060;2023-04-29T00:56:39;100339.17;;;8.55;62.94
43683;BME280;29285;52.128;21.060;2023-04-29T01:01:42;100334.84;;;8.49;63.19
43683;BME280;29285;52.128;21.060;2023-04-29T01:12:32;100338.20;;;8.40;63.75
43683;BME280;29285;52.128;21.060;2023-04-29T01:17:41;100336.48;;;8.41;64.02
43683;BME280;29285;52.128;21.060;2023-04-29T01:22:44;100339.89;;;8.45;64.53
43683;BME280;29285;52.128;21.060;2023-04-29T01:27:48;100339.04;;;8.47;65.07
43683;BME280;29285;52.128;21.060;2023-04-29T01:33:21;100338.16;;;8.46;65.30
43683;BME280;29285;52.128;21.060;2023-04-29T01:43:51;100334.20;;;8.43;65.73
43683;BME280;29285;52.128;21.060;2023-04-29T01:48:53;100335.58;;;8.45;66.12
43683;BME280;29285;52.128;21.060;2023-04-29T01:53:54;100335.39;;;8.48;66.36
43683;BME280;29285;52.128;21.060;2023-04-29T01:58:55;100332.98;;;8.46;66.58
43683;BME280;29285;52.128;21.060;2023-04-29T02:03:56;100326.95;;;8.44;66.74
43683;BME280;29285;52.128;21.060;2023-04-29T02:08:58;100329.88;;;8.43;66.94
43683;BME280;29285;52.128;21.060;2023-04-29T02:13:59;100330.09;;;8.39;67.04
43683;BME280;29285;52.128;21.060;2023-04-29T02:19:00;100325.96;;;8.36;67.21
43683;BME280;29285;52.128;21.060;2023-04-29T02:24:01;100325.77;;;8.37;67.45
43683;BME280;29285;52.128;21.060;2023-04-29T02:29:03;100321.11;;;8.36;67.77
43683;BME280;29285;52.128;21.060;2023-04-29T02:34:04;100322.67;;;8.35;67.88
43683;BME280;29285;52.128;21.060;2023-04-29T02:39:05;100316.13;;;8.32;68.05
43683;BME280;29285;52.128;21.060;2023-04-29T02:44:06;100314.59;;;8.31;68.15
43683;BME280;29285;52.128;21.060;2023-04-29T02:49:07;100311.48;;;8.31;68.48
43683;BME280;29285;52.128;21.060;2023-04-29T02:54:08;100310.76;;;8.34;68.76
43683;BME280;29285;52.128;21.060;2023-04-29T02:59:11;100307.13;;;8.33;68.88
43683;BME280;29285;52.128;21.060;2023-04-29T03:04:12;100304.55;;;8.33;69.20
43683;BME280;29285;52.128;21.060;2023-04-29T03:09:13;100307.00;;;8.28;69.27
43683;BME280;29285;52.128;21.060;2023-04-29T03:14:14;100304.93;;;8.27;69.44
43683;BME280;29285;52.128;21.060;2023-04-29T03:19:15;100302.35;;;8.26;69.62
43683;BME280;29285;52.128;21.060;2023-04-29T03:24:16;100300.31;;;8.21;69.63
43683;BME280;29285;52.128;21.060;2023-04-29T03:29:17;100299.10;;;8.20;69.96
43683;BME280;29285;52.128;21.060;2023-04-29T03:34:19;100299.45;;;8.19;70.14
43683;BME280;29285;52.128;21.060;2023-04-29T03:39:20;100298.23;;;8.18;70.34
43683;BME280;29285;52.128;21.060;2023-04-29T03:44:21;100296.01;;;8.17;70.49
43683;BME280;29285;52.128;21.060;2023-04-29T03:49:22;100294.98;;;8.16;70.73
43683;BME280;29285;52.128;21.060;2023-04-29T03:54:23;100303.63;;;8.15;70.74
43683;BME280;29285;52.128;21.060;2023-04-29T03:59:24;100300.32;;;8.17;71.04
43683;BME280;29285;52.128;21.060;2023-04-29T04:04:25;100300.86;;;8.16;71.16
43683;BME280;29285;52.128;21.060;2023-04-29T04:09:26;100297.38;;;8.19;71.37
43683;BME280;29285;52.128;21.060;2023-04-29T04:14:28;100296.85;;;8.22;71.65
43683;BME280;29285;52.128;21.060;2023-04-29T04:19:29;100297.84;;;8.27;71.84
43683;BME280;29285;52.128;21.060;2023-04-29T04:24:30;100296.07;;;8.35;72.12
43683;BME280;29285;52.128;21.060;2023-04-29T04:29:32;100294.80;;;8.42;72.40
43683;BME280;29285;52.128;21.060;2023-04-29T04:34:33;100294.03;;;8.52;72.71
43683;BME280;29285;52.128;21.060;2023-04-29T04:39:34;100291.91;;;8.60;73.01
43683;BME280;29285;52.128;21.060;2023-04-29T04:44:35;100290.77;;;8.71;73.17
43683;BME280;29285;52.128;21.060;2023-04-29T04:49:37;100283.26;;;8.81;73.48
43683;BME280;29285;52.128;21.060;2023-04-29T04:54:38;100282.45;;;8.91;73.66
43683;BME280;29285;52.128;21.060;2023-04-29T04:59:39;100277.67;;;9.04;73.87
43683;BME280;29285;52.128;21.060;2023-04-29T05:04:40;100280.32;;;9.14;74.09
43683;BME280;29285;52.128;21.060;2023-04-29T05:09:42;100279.45;;;9.29;74.34
43683;BME280;29285;52.128;21.060;2023-04-29T05:14:43;100286.25;;;9.42;74.63
43683;BME280;29285;52.128;21.060;2023-04-29T05:19:44;100285.48;;;9.48;74.74
43683;BME280;29285;52.128;21.060;2023-04-29T05:24:46;100282.30;;;9.52;74.79
43683;BME280;29285;52.128;21.060;2023-04-29T05:29:48;100279.79;;;9.60;74.89
43683;BME280;29285;52.128;21.060;2023-04-29T05:34:49;100281.34;;;9.73;75.11
43683;BME280;29285;52.128;21.060;2023-04-29T05:39:50;100277.06;;;9.83;75.20
43683;BME280;29285;52.128;21.060;2023-04-29T05:44:51;100277.25;;;9.94;75.34
43683;BME280;29285;52.128;21.060;2023-04-29T05:49:53;100273.64;;;10.04;75.56
43683;BME280;29285;52.128;21.060;2023-04-29T05:54:54;100273.38;;;10.22;75.81
43683;BME280;29285;52.128;21.060;2023-04-29T05:59:55;100267.23;;;10.38;75.87
43683;BME280;29285;52.128;21.060;2023-04-29T06:04:57;100269.62;;;10.62;76.30
43683;BME280;29285;52.128;21.060;2023-04-29T06:09:58;100265.41;;;10.76;76.28
43683;BME280;29285;52.128;21.060;2023-04-29T06:14:59;100265.10;;;10.93;76.40
43683;BME280;29285;52.128;21.060;2023-04-29T06:20:01;100263.27;;;11.16;76.81
43683;BME280;29285;52.128;21.060;2023-04-29T06:25:02;100259.49;;;11.40;77.12
43683;BME280;29285;52.128;21.060;2023-04-29T06:30:03;100259.44;;;11.59;77.27
43683;BME280;29285;52.128;21.060;2023-04-29T06:35:05;100261.83;;;11.77;77.30
43683;BME280;29285;52.128;21.060;2023-04-29T06:40:07;100257.29;;;11.94;77.02
43683;BME280;29285;52.128;21.060;2023-04-29T06:45:09;100259.65;;;12.15;77.26
43683;BME280;29285;52.128;21.060;2023-04-29T06:50:10;100251.81;;;12.30;77.07
43683;BME280;29285;52.128;21.060;2023-04-29T06:55:11;100253.48;;;12.46;76.96
43683;BME280;29285;52.128;21.060;2023-04-29T07:00:12;100251.23;;;12.66;76.98
43683;BME280;29285;52.128;21.060;2023-04-29T07:05:14;100251.09;;;12.91;77.23
43683;BME280;29285;52.128;21.060;2023-04-29T07:10:16;100247.79;;;13.60;78.84
43683;BME280;29285;52.128;21.060;2023-04-29T07:15:17;100241.46;;;13.96;79.44
43683;BME280;29285;52.128;21.060;2023-04-29T07:20:18;100241.70;;;14.27;79.53
43683;BME280;29285;52.128;21.060;2023-04-29T07:25:19;100234.73;;;14.38;79.13
43683;BME280;29285;52.128;21.060;2023-04-29T07:30:20;100233.40;;;14.51;78.52
43683;BME280;29285;52.128;21.060;2023-04-29T07:41:40;100232.52;;;14.93;78.23
43683;BME280;29285;52.128;21.060;2023-04-29T07:46:41;100233.34;;;15.04;77.73
43683;BME280;29285;52.128;21.060;2023-04-29T07:51:42;100232.45;;;15.24;77.87
43683;BME280;29285;52.128;21.060;2023-04-29T07:56:44;100233.67;;;15.29;77.41
43683;BME280;29285;52.128;21.060;2023-04-29T08:01:45;100233.48;;;15.25;76.44
43683;BME280;29285;52.128;21.060;2023-04-29T08:06:47;100231.83;;;15.22;75.68
43683;BME280;29285;52.128;21.060;2023-04-29T08:11:48;100234.35;;;15.29;75.25
43683;BME280;29285;52.128;21.060;2023-04-29T08:16:50;100237.42;;;15.45;75.23
43683;BME280;29285;52.128;21.060;2023-04-29T08:21:51;100234.83;;;15.63;74.97
43683;BME280;29285;52.128;21.060;2023-04-29T08:26:52;100231.98;;;15.87;74.97
43683;BME280;29285;52.128;21.060;2023-04-29T08:31:54;100227.39;;;16.02;74.87
43683;BME280;29285;52.128;21.060;2023-04-29T08:36:56;100227.07;;;16.10;74.16
43683;BME280;29285;52.128;21.060;2023-04-29T08:41:58;100225.52;;;16.27;73.90
43683;BME280;29285;52.128;21.060;2023-04-29T08:47:00;100223.40;;;16.44;73.74
43683;BME280;29285;52.128;21.060;2023-04-29T08:52:02;100219.78;;;16.55;73.48
43683;BME280;29285;52.128;21.060;2023-04-29T08:57:04;100217.92;;;16.54;72.65
43683;BME280;29285;52.128;21.060;2023-04-29T09:02:08;100221.55;;;16.34;71.34
43683;BME280;29285;52.128;21.060;2023-04-29T09:07:14;100221.17;;;16.39;70.76
43683;BME280;29285;52.128;21.060;2023-04-29T09:12:15;100218.31;;;16.65;71.27
43683;BME280;29285;52.128;21.060;2023-04-29T09:17:16;100209.86;;;16.86;71.38
43683;BME280;29285;52.128;21.060;2023-04-29T09:22:18;100211.56;;;17.03;71.22
43683;BME280;29285;52.128;21.060;2023-04-29T09:27:28;100210.91;;;17.19;70.66
43683;BME280;29285;52.128;21.060;2023-04-29T09:32:29;100207.96;;;17.41;70.63
43683;BME280;29285;52.128;21.060;2023-04-29T09:37:31;100206.00;;;17.61;70.50
43683;BME280;29285;52.128;21.060;2023-04-29T09:42:41;100201.54;;;17.85;70.56
43683;BME280;29285;52.128;21.060;2023-04-29T09:47:43;100189.96;;;18.03;70.63
43683;BME280;29285;52.128;21.060;2023-04-29T09:52:44;100187.20;;;18.01;69.76
43683;BME280;29285;52.128;21.060;2023-04-29T09:57:45;100190.27;;;17.96;68.61
43683;BME280;29285;52.128;21.060;2023-04-29T10:02:47;100177.34;;;18.13;68.71
43683;BME280;29285;52.128;21.060;2023-04-29T10:07:50;100172.54;;;18.15;68.33
43683;BME280;29285;52.128;21.060;2023-04-29T10:12:55;100169.09;;;18.06;67.35
43683;BME280;29285;52.128;21.060;2023-04-29T10:18:20;100160.21;;;18.08;66.98
43683;BME280;29285;52.128;21.060;2023-04-29T10:23:32;100163.77;;;18.07;66.33
43683;BME280;29285;52.128;21.060;2023-04-29T10:28:38;100155.91;;;17.88;65.40
43683;BME280;29285;52.128;21.060;2023-04-29T10:33:42;100153.54;;;17.83;64.64
43683;BME280;29285;52.128;21.060;2023-04-29T10:38:48;100149.86;;;17.97;64.89
43683;BME280;29285;52.128;21.060;2023-04-29T10:43:53;100131.54;;;18.20;65.39
43683;BME280;29285;52.128;21.060;2023-04-29T10:49:02;100132.63;;;18.36;65.28
43683;BME280;29285;52.128;21.060;2023-04-29T10:54:09;100135.70;;;18.56;65.34
43683;BME280;29285;52.128;21.060;2023-04-29T10:59:14;100131.04;;;18.84;65.61
43683;BME280;29285;52.128;21.060;2023-04-29T11:04:16;100133.33;;;19.20;66.30
43683;BME280;29285;52.128;21.060;2023-04-29T11:09:28;100129.50;;;19.54;66.79
43683;BME280;29285;52.128;21.060;2023-04-29T11:14:31;100121.90;;;19.89;67.20
43683;BME280;29285;52.128;21.060;2023-04-29T11:19:34;100114.73;;;20.10;67.12
43683;BME280;29285;52.128;21.060;2023-04-29T11:24:47;100114.16;;;20.08;65.94
43683;BME280;29285;52.128;21.060;2023-04-29T11:29:49;100112.54;;;20.32;65.66
43683;BME280;29285;52.128;21.060;2023-04-29T11:34:51;100118.64;;;20.36;64.67
43683;BME280;29285;52.128;21.060;2023-04-29T11:39:58;100110.66;;;20.19;63.36
43683;BME280;29285;52.128;21.060;2023-04-29T11:45:01;100104.30;;;20.43;63.08
43683;BME280;29285;52.128;21.060;2023-04-29T11:50:03;100102.73;;;19.83;60.28
43683;BME280;29285;52.128;21.060;2023-04-29T11:55:07;100099.64;;;19.22;58.03
43683;BME280;29285;52.128;21.060;2023-04-29T12:00:09;100091.08;;;19.49;58.57
43683;BME280;29285;52.128;21.060;2023-04-29T12:05:12;100088.23;;;20.11;60.05
43683;BME280;29285;52.128;21.060;2023-04-29T12:10:15;100083.96;;;20.59;60.49
43683;BME280;29285;52.128;21.060;2023-04-29T12:15:17;100079.30;;;20.95;60.63
43683;BME280;29285;52.128;21.060;2023-04-29T12:20:18;100072.08;;;21.00;60.22
43683;BME280;29285;52.128;21.060;2023-04-29T12:25:24;100072.14;;;20.68;58.75
43683;BME280;29285;52.128;21.060;2023-04-29T12:30:27;100072.70;;;20.73;58.46
43683;BME280;29285;52.128;21.060;2023-04-29T12:35:31;100066.37;;;20.41;57.65
43683;BME280;29285;52.128;21.060;2023-04-29T12:40:33;100064.17;;;20.04;56.52
43683;BME280;29285;52.128;21.060;2023-04-29T12:45:37;100057.59;;;20.29;57.05
43683;BME280;29285;52.128;21.060;2023-04-29T12:50:39;100056.20;;;20.49;57.63
43683;BME280;29285;52.128;21.060;2023-04-29T12:55:40;100056.75;;;20.75;57.56
43683;BME280;29285;52.128;21.060;2023-04-29T13:00:42;100049.56;;;20.82;57.02
43683;BME280;29285;52.128;21.060;2023-04-29T13:05:44;100045.05;;;20.81;56.68
43683;BME280;29285;52.128;21.060;2023-04-29T13:10:46;100048.90;;;21.12;57.42
43683;BME280;29285;52.128;21.060;2023-04-29T13:15:52;100040.73;;;21.21;56.79
43683;BME280;29285;52.128;21.060;2023-04-29T13:21:13;100033.39;;;21.29;56.33
43683;BME280;29285;52.128;21.060;2023-04-29T13:26:19;100039.16;;;21.46;56.26
43683;BME280;29285;52.128;21.060;2023-04-29T13:31:21;100035.55;;;21.31;55.91
43683;BME280;29285;52.128;21.060;2023-04-29T13:36:22;100034.62;;;21.01;55.20
43683;BME280;29285;52.128;21.060;2023-04-29T13:41:23;100029.91;;;20.75;54.86
43683;BME280;29285;52.128;21.060;2023-04-29T13:46:29;100030.34;;;20.51;54.73
43683;BME280;29285;52.128;21.060;2023-04-29T13:51:37;100027.80;;;20.26;54.52
43683;BME280;29285;52.128;21.060;2023-04-29T13:56:39;100030.30;;;19.99;54.22
43683;BME280;29285;52.128;21.060;2023-04-29T14:01:40;100026.67;;;19.80;54.14
43683;BME280;29285;52.128;21.060;2023-04-29T14:06:44;100023.02;;;19.79;54.45
43683;BME280;29285;52.128;21.060;2023-04-29T14:11:46;100022.20;;;19.84;54.69
43683;BME280;29285;52.128;21.060;2023-04-29T14:16:48;100019.08;;;20.04;54.84
43683;BME280;29285;52.128;21.060;2023-04-29T14:21:49;100015.36;;;20.17;55.13
43683;BME280;29285;52.128;21.060;2023-04-29T14:26:51;100019.05;;;20.34;55.27
43683;BME280;29285;52.128;21.060;2023-04-29T14:31:56;100019.00;;;20.46;55.58
43683;BME280;29285;52.128;21.060;2023-04-29T14:36:57;100018.25;;;20.47;55.57
43683;BME280;29285;52.128;21.060;2023-04-29T14:41:59;100010.45;;;20.34;55.18
43683;BME280;29285;52.128;21.060;2023-04-29T14:47:01;100006.25;;;20.19;54.99
43683;BME280;29285;52.128;21.060;2023-04-29T14:52:03;100003.77;;;20.04;54.82
43683;BME280;29285;52.128;21.060;2023-04-29T14:57:04;100007.71;;;19.82;54.48
43683;BME280;29285;52.128;21.060;2023-04-29T15:02:06;100007.86;;;19.71;54.32
43683;BME280;29285;52.128;21.060;2023-04-29T15:07:07;100005.54;;;19.56;54.11
43683;BME280;29285;52.128;21.060;2023-04-29T15:12:08;100008.74;;;19.52;54.44
43683;BME280;29285;52.128;21.060;2023-04-29T15:17:10;100007.93;;;19.49;54.60
43683;BME280;29285;52.128;21.060;2023-04-29T15:22:11;100007.13;;;19.47;54.87
43683;BME280;29285;52.128;21.060;2023-04-29T15:27:15;100006.42;;;19.41;54.82
43683;BME280;29285;52.128;21.060;2023-04-29T15:32:24;100008.04;;;19.43;55.09
43683;BME280;29285;52.128;21.060;2023-04-29T15:37:31;100015.94;;;19.44;55.48
43683;BME280;29285;52.128;21.060;2023-04-29T15:42:35;100014.15;;;19.41;55.60
43683;BME280;29285;52.128;21.060;2023-04-29T15:47:36;100007.65;;;19.38;55.69
43683;BME280;29285;52.128;21.060;2023-04-29T15:52:38;100002.59;;;19.40;55.72
43683;BME280;29285;52.128;21.060;2023-04-29T15:57:39;99998.86;;;19.83;56.23
43683;BME280;29285;52.128;21.060;2023-04-29T16:02:52;99999.70;;;20.70;57.47
43683;BME280;29285;52.128;21.060;2023-04-29T16:07:53;99995.91;;;21.14;57.29
43683;BME280;29285;52.128;21.060;2023-04-29T16:12:55;99998.70;;;20.97;55.59
43683;BME280;29285;52.128;21.060;2023-04-29T16:17:58;100001.35;;;20.24;53.02
43683;BME280;29285;52.128;21.060;2023-04-29T16:23:01;99997.91;;;20.00;52.37
43683;BME280;29285;52.128;21.060;2023-04-29T16:28:02;99999.41;;;19.98;52.92
43683;BME280;29285;52.128;21.060;2023-04-29T16:33:03;99996.64;;;19.82;52.79
43683;BME280;29285;52.128;21.060;2023-04-29T16:38:04;100002.55;;;19.59;52.44
43683;BME280;29285;52.128;21.060;2023-04-29T16:43:05;100011.64;;;19.42;52.40
43683;BME280;29285;52.128;21.060;2023-04-29T16:48:06;100013.54;;;19.15;52.02
43683;BME280;29285;52.128;21.060;2023-04-29T16:53:08;100012.86;;;18.85;51.54
43683;BME280;29285;52.128;21.060;2023-04-29T16:58:09;100014.48;;;18.69;51.63
43683;BME280;29285;52.128;21.060;2023-04-29T17:03:10;100021.10;;;18.57;51.64
43683;BME280;29285;52.128;21.060;2023-04-29T17:08:12;100025.20;;;18.42;51.69
43683;BME280;29285;52.128;21.060;2023-04-29T17:13:17;100032.54;;;18.23;51.61
43683;BME280;29285;52.128;21.060;2023-04-29T17:18:18;100029.36;;;18.10;51.61
43683;BME280;29285;52.128;21.060;2023-04-29T17:23:28;100032.05;;;17.98;51.73
43683;BME280;29285;52.128;21.060;2023-04-29T17:28:38;100034.01;;;17.87;51.87
43683;BME280;29285;52.128;21.060;2023-04-29T17:33:40;100033.85;;;17.77;52.06
43683;BME280;29285;52.128;21.060;2023-04-29T17:38:50;100039.14;;;17.51;51.81
43683;BME280;29285;52.128;21.060;2023-04-29T17:43:51;100044.23;;;17.22;51.85
43683;BME280;29285;52.128;21.060;2023-04-29T17:48:52;100045.30;;;16.95;52.43
43683;BME280;29285;52.128;21.060;2023-04-29T17:53:54;100045.10;;;16.80;53.33
43683;BME280;29285;52.128;21.060;2023-04-29T17:58:55;100047.50;;;16.66;54.06
43683;BME280;29285;52.128;21.060;2023-04-29T18:03:57;100052.23;;;16.55;54.81
43683;BME280;29285;52.128;21.060;2023-04-29T18:08:58;100049.73;;;16.48;55.51
43683;BME280;29285;52.128;21.060;2023-04-29T18:13:59;100052.79;;;16.42;56.31
43683;BME280;29285;52.128;21.060;2023-04-29T18:19:01;100056.86;;;16.25;57.00
43683;BME280;29285;52.128;21.060;2023-04-29T18:24:02;100060.33;;;16.14;57.67
43683;BME280;29285;52.128;21.060;2023-04-29T18:29:03;100061.75;;;16.05;58.35
43683;BME280;29285;52.128;21.060;2023-04-29T18:34:08;100066.61;;;16.02;58.98
43683;BME280;29285;52.128;21.060;2023-04-29T18:39:09;100065.47;;;16.00;59.64
43683;BME280;29285;52.128;21.060;2023-04-29T18:44:10;100075.65;;;15.95;60.32
43683;BME280;29285;52.128;21.060;2023-04-29T18:49:12;100085.50;;;15.93;61.06
43683;BME280;29285;52.128;21.060;2023-04-29T18:54:17;100092.23;;;15.83;61.60
43683;BME280;29285;52.128;21.060;2023-04-29T18:59:18;100094.09;;;15.80;62.19
43683;BME280;29285;52.128;21.060;2023-04-29T19:04:19;100097.52;;;15.95;63.19
43683;BME280;29285;52.128;21.060;2023-04-29T19:09:25;100093.34;;;16.07;64.01
43683;BME280;29285;52.128;21.060;2023-04-29T19:14:28;100097.24;;;16.14;64.65
43683;BME280;29285;52.128;21.060;2023-04-29T19:19:30;100098.42;;;16.15;65.04
43683;BME280;29285;52.128;21.060;2023-04-29T19:24:33;100099.30;;;16.15;65.44
43683;BME280;29285;52.128;21.060;2023-04-29T19:29:37;100098.97;;;16.15;65.89
43683;BME280;29285;52.128;21.060;2023-04-29T19:34:38;100095.60;;;16.08;66.07
43683;BME280;29285;52.128;21.060;2023-04-29T19:39:39;100095.70;;;16.05;66.52
43683;BME280;29285;52.128;21.060;2023-04-29T19:44:40;100097.54;;;16.03;66.97
43683;BME280;29285;52.128;21.060;2023-04-29T19:49:42;100099.09;;;16.04;67.53
43683;BME280;29285;52.128;21.060;2023-04-29T19:54:44;100099.17;;;16.01;68.09
43683;BME280;29285;52.128;21.060;2023-04-29T19:59:45;100098.80;;;15.93;68.39
43683;BME280;29285;52.128;21.060;2023-04-29T20:04:46;100098.10;;;15.84;68.73
43683;BME280;29285;52.128;21.060;2023-04-29T20:09:48;100103.03;;;15.71;69.02
43683;BME280;29285;52.128;21.060;2023-04-29T20:14:49;100102.20;;;15.61;69.39
43683;BME280;29285;52.128;21.060;2023-04-29T20:19:51;100101.86;;;15.52;69.81
43683;BME280;29285;52.128;21.060;2023-04-29T20:24:52;100104.06;;;15.45;70.07
43683;BME280;29285;52.128;21.060;2023-04-29T20:29:54;100102.14;;;15.41;70.64
43683;BME280;29285;52.128;21.060;2023-04-29T20:34:55;100097.91;;;15.37;71.28
43683;BME280;29285;52.128;21.060;2023-04-29T20:39:56;100095.90;;;15.39;72.10
43683;BME280;29285;52.128;21.060;2023-04-29T20:44:57;100094.94;;;15.37;72.59
43683;BME280;29285;52.128;21.060;2023-04-29T20:50:02;100097.47;;;15.40;73.17
43683;BME280;29285;52.128;21.060;2023-04-29T20:55:13;100089.80;;;15.47;74.08
43683;BME280;29285;52.128;21.060;2023-04-29T21:00:15;100089.13;;;15.47;74.52
43683;BME280;29285;52.128;21.060;2023-04-29T21:05:17;100087.38;;;15.52;75.18
43683;BME280;29285;52.128;21.060;2023-04-29T21:10:18;100087.75;;;15.51;75.57
43683;BME280;29285;52.128;21.060;2023-04-29T21:15:26;100094.02;;;15.42;75.62
43683;BME280;29285;52.128;21.060;2023-04-29T21:20:37;100099.84;;;15.33;75.60
43683;BME280;29285;52.128;21.060;2023-04-29T21:25:38;100104.54;;;15.24;75.75
43683;BME280;29285;52.128;21.060;2023-04-29T21:30:42;100104.36;;;15.19;76.05
43683;BME280;29285;52.128;21.060;2023-04-29T21:35:44;100105.06;;;15.15;76.30
43683;BME280;29285;52.128;21.060;2023-04-29T21:40:49;100097.73;;;15.15;76.73
43683;BME280;29285;52.128;21.060;2023-04-29T21:45:51;100095.27;;;15.10;76.95
43683;BME280;29285;52.128;21.060;2023-04-29T21:50:56;100101.31;;;15.08;77.21
43683;BME280;29285;52.128;21.060;2023-04-29T21:55:57;100098.61;;;15.06;77.62
43683;BME280;29285;52.128;21.060;2023-04-29T22:00:59;100101.73;;;15.01;78.04
43683;BME280;29285;52.128;21.060;2023-04-29T22:06:05;100102.70;;;14.85;77.98
43683;BME280;29285;52.128;21.060;2023-04-29T22:11:08;100099.08;;;14.73;78.11
43683;BME280;29285;52.128;21.060;2023-04-29T22:16:10;100097.80;;;14.65;78.47
43683;BME280;29285;52.128;21.060;2023-04-29T22:21:11;100101.20;;;14.58;78.83
43683;BME280;29285;52.128;21.060;2023-04-29T22:26:13;100093.94;;;14.52;79.16
43683;BME280;29285;52.128;21.060;2023-04-29T22:31:14;100093.62;;;14.46;79.71
43683;BME280;29285;52.128;21.060;2023-04-29T22:36:16;100089.81;;;14.39;79.99
43683;BME280;29285;52.128;21.060;2023-04-29T22:41:17;100086.06;;;14.27;80.11
43683;BME280;29285;52.128;21.060;2023-04-29T22:46:19;100089.79;;;14.20;80.28
43683;BME280;29285;52.128;21.060;2023-04-29T22:51:20;100091.66;;;14.22;81.35
43683;BME280;29285;52.128;21.060;2023-04-29T22:56:22;100093.43;;;14.05;81.31
43683;BME280;29285;52.128;21.060;2023-04-29T23:01:24;100095.89;;;13.95;81.41
43683;BME280;29285;52.128;21.060;2023-04-29T23:06:25;100100.96;;;13.84;81.76
43683;BME280;29285;52.128;21.060;2023-04-29T23:11:27;100106.15;;;13.74;82.13
43683;BME280;29285;52.128;21.060;2023-04-29T23:16:28;100111.79;;;13.67;82.51
43683;BME280;29285;52.128;21.060;2023-04-29T23:21:29;100105.73;;;13.71;83.11
43683;BME280;29285;52.128;21.060;2023-04-29T23:26:31;100100.26;;;13.63;83.47
43683;BME280;29285;52.128;21.060;2023-04-29T23:31:32;100105.40;;;13.54;83.89
43683;BME280;29285;52.128;21.060;2023-04-29T23:36:33;100102.50;;;13.63;84.82
43683;BME280;29285;52.128;21.060;2023-04-29T23:41:34;100104.33;;;13.72;85.63
43683;BME280;29285;52.128;21.060;2023-04-29T23:46:35;100099.32;;;13.65;86.13
43683;BME280;29285;52.128;21.060;2023-04-29T23:51:36;100096.27;;;13.62;86.84
43683;BME280;29285;52.128;21.060;2023-04-29T23:56:37;100087.70;;;13.63;87.59
